sensor_id;sensor_type;location;lat;lon;timestamp;P1;durP1;ratioP1;P2;durP2;ratioP2
73733;SDS011;62039;50.000;9.064;2023-02-28T00:01:06;2.73;;;1.90;;
73733;SDS011;62039;50.000;9.064;2023-02-28T00:03:33;3.03;;;1.83;;
73733;SDS011;62039;50.000;9.064;2023-02-28T00:05:59;2.77;;;1.70;;
73733;SDS011;62039;50.000;9.064;2023-02-28T00:08:26;4.00;;;1.80;;
73733;SDS011;62039;50.000;9.064;2023-02-28T00:10:54;2.47;;;1.67;;
73733;SDS011;62039;50.000;9.064;2023-02-28T00:13:20;1.83;;;1.73;;
73733;SDS011;62039;50.000;9.064;2023-02-28T00:15:47;2.07;;;1.87;;
73733;SDS011;62039;50.000;9.064;2023-02-28T00:18:13;2.27;;;1.73;;
73733;SDS011;62039;50.000;9.064;2023-02-28T00:20:40;2.33;;;1.60;;
73733;SDS011;62039;50.000;9.064;2023-02-28T00:23:07;1.70;;;1.40;;
73733;SDS011;62039;50.000;9.064;2023-02-28T00:25:34;1.47;;;1.30;;
73733;SDS011;62039;50.000;9.064;2023-02-28T00:28:02;2.20;;;1.33;;
73733;SDS011;62039;50.000;9.064;2023-02-28T00:30:28;2.47;;;1.60;;
73733;SDS011;62039;50.000;9.064;2023-02-28T00:32:55;2.23;;;1.67;;
73733;SDS011;62039;50.000;9.064;2023-02-28T00:35:21;2.70;;;1.50;;
73733;SDS011;62039;50.000;9.064;2023-02-28T00:37:48;2.97;;;1.70;;
73733;SDS011;62039;50.000;9.064;2023-02-28T00:40:15;2.50;;;1.77;;
73733;SDS011;62039;50.000;9.064;2023-02-28T00:42:41;1.70;;;1.40;;
73733;SDS011;62039;50.000;9.064;2023-02-28T00:45:09;3.23;;;1.57;;
73733;SDS011;62039;50.000;9.064;2023-02-28T00:47:36;1.67;;;1.40;;
73733;SDS011;62039;50.000;9.064;2023-02-28T00:50:03;1.90;;;1.20;;
73733;SDS011;62039;50.000;9.064;2023-02-28T00:52:30;1.63;;;1.27;;
73733;SDS011;62039;50.000;9.064;2023-02-28T00:54:57;1.50;;;1.40;;
73733;SDS011;62039;50.000;9.064;2023-02-28T00:57:24;1.47;;;1.27;;
73733;SDS011;62039;50.000;9.064;2023-02-28T00:59:50;1.37;;;1.20;;
73733;SDS011;62039;50.000;9.064;2023-02-28T01:02:18;2.87;;;1.40;;
73733;SDS011;62039;50.000;9.064;2023-02-28T01:04:45;2.90;;;1.50;;
73733;SDS011;62039;50.000;9.064;2023-02-28T01:07:12;1.87;;;1.43;;
73733;SDS011;62039;50.000;9.064;2023-02-28T01:09:38;2.17;;;1.50;;
73733;SDS011;62039;50.000;9.064;2023-02-28T01:12:06;2.40;;;1.80;;
73733;SDS011;62039;50.000;9.064;2023-02-28T01:14:33;2.37;;;1.53;;
73733;SDS011;62039;50.000;9.064;2023-02-28T01:17:00;2.03;;;1.37;;
73733;SDS011;62039;50.000;9.064;2023-02-28T01:19:28;2.23;;;1.60;;
73733;SDS011;62039;50.000;9.064;2023-02-28T01:21:55;2.43;;;1.57;;
73733;SDS011;62039;50.000;9.064;2023-02-28T01:24:21;2.90;;;1.70;;
73733;SDS011;62039;50.000;9.064;2023-02-28T01:26:48;2.07;;;1.50;;
73733;SDS011;62039;50.000;9.064;2023-02-28T01:29:14;3.17;;;2.03;;
73733;SDS011;62039;50.000;9.064;2023-02-28T01:31:41;5.17;;;2.10;;
73733;SDS011;62039;50.000;9.064;2023-02-28T01:34:08;1.93;;;1.70;;
73733;SDS011;62039;50.000;9.064;2023-02-28T01:36:35;2.50;;;1.73;;
73733;SDS011;62039;50.000;9.064;2023-02-28T01:39:02;1.50;;;1.40;;
73733;SDS011;62039;50.000;9.064;2023-02-28T01:41:29;1.53;;;1.30;;
73733;SDS011;62039;50.000;9.064;2023-02-28T01:43:59;1.87;;;1.30;;
73733;SDS011;62039;50.000;9.064;2023-02-28T01:46:29;2.13;;;1.30;;
73733;SDS011;62039;50.000;9.064;2023-02-28T01:48:57;1.40;;;1.23;;
73733;SDS011;62039;50.000;9.064;2023-02-28T01:51:31;1.33;;;1.10;;
73733;SDS011;62039;50.000;9.064;2023-02-28T01:54:03;1.30;;;1.20;;
73733;SDS011;62039;50.000;9.064;2023-02-28T01:56:33;2.80;;;1.70;;
73733;SDS011;62039;50.000;9.064;2023-02-28T01:59:02;2.70;;;1.87;;
73733;SDS011;62039;50.000;9.064;2023-02-28T02:01:29;2.10;;;1.60;;
73733;SDS011;62039;50.000;9.064;2023-02-28T02:03:57;2.00;;;1.50;;
73733;SDS011;62039;50.000;9.064;2023-02-28T02:06:28;2.80;;;1.63;;
73733;SDS011;62039;50.000;9.064;2023-02-28T02:08:57;2.40;;;1.43;;
73733;SDS011;62039;50.000;9.064;2023-02-28T02:11:25;1.40;;;1.30;;
73733;SDS011;62039;50.000;9.064;2023-02-28T02:13:56;2.30;;;1.50;;
73733;SDS011;62039;50.000;9.064;2023-02-28T02:16:37;1.47;;;1.20;;
73733;SDS011;62039;50.000;9.064;2023-02-28T02:19:15;2.13;;;1.60;;
73733;SDS011;62039;50.000;9.064;2023-02-28T02:22:20;1.70;;;1.40;;
73733;SDS011;62039;50.000;9.064;2023-02-28T02:25:16;1.60;;;1.50;;
73733;SDS011;62039;50.000;9.064;2023-02-28T02:27:55;1.83;;;1.50;;
73733;SDS011;62039;50.000;9.064;2023-02-28T02:30:38;2.03;;;1.70;;
73733;SDS011;62039;50.000;9.064;2023-02-28T02:33:24;2.47;;;1.50;;
73733;SDS011;62039;50.000;9.064;2023-02-28T02:36:01;2.10;;;1.40;;
73733;SDS011;62039;50.000;9.064;2023-02-28T02:38:32;2.67;;;1.37;;
73733;SDS011;62039;50.000;9.064;2023-02-28T02:41:03;1.50;;;1.40;;
73733;SDS011;62039;50.000;9.064;2023-02-28T02:43:35;2.07;;;1.40;;
73733;SDS011;62039;50.000;9.064;2023-02-28T02:46:05;2.70;;;1.60;;
73733;SDS011;62039;50.000;9.064;2023-02-28T02:48:36;1.90;;;1.50;;
73733;SDS011;62039;50.000;9.064;2023-02-28T02:51:09;2.40;;;1.93;;
73733;SDS011;62039;50.000;9.064;2023-02-28T02:53:40;2.27;;;1.60;;
73733;SDS011;62039;50.000;9.064;2023-02-28T02:56:10;1.80;;;1.70;;
73733;SDS011;62039;50.000;9.064;2023-02-28T02:58:38;3.30;;;1.47;;
73733;SDS011;62039;50.000;9.064;2023-02-28T03:01:08;1.87;;;1.60;;
73733;SDS011;62039;50.000;9.064;2023-02-28T03:03:38;2.77;;;1.90;;
73733;SDS011;62039;50.000;9.064;2023-02-28T03:06:05;2.27;;;1.90;;
73733;SDS011;62039;50.000;9.064;2023-02-28T03:08:35;1.60;;;1.50;;
73733;SDS011;62039;50.000;9.064;2023-02-28T03:11:04;3.33;;;1.80;;
73733;SDS011;62039;50.000;9.064;2023-02-28T03:13:36;1.60;;;1.50;;
73733;SDS011;62039;50.000;9.064;2023-02-28T03:16:15;1.90;;;1.67;;
73733;SDS011;62039;50.000;9.064;2023-02-28T03:19:00;2.50;;;1.60;;
73733;SDS011;62039;50.000;9.064;2023-02-28T03:21:34;1.70;;;1.50;;
73733;SDS011;62039;50.000;9.064;2023-02-28T03:24:06;2.50;;;1.93;;
73733;SDS011;62039;50.000;9.064;2023-02-28T03:26:38;1.53;;;1.43;;
73733;SDS011;62039;50.000;9.064;2023-02-28T03:29:10;2.27;;;1.40;;
73733;SDS011;62039;50.000;9.064;2023-02-28T03:31:43;1.93;;;1.70;;
73733;SDS011;62039;50.000;9.064;2023-02-28T03:34:14;2.57;;;1.50;;
73733;SDS011;62039;50.000;9.064;2023-02-28T03:36:45;2.00;;;1.70;;
73733;SDS011;62039;50.000;9.064;2023-02-28T03:39:17;2.30;;;1.50;;
73733;SDS011;62039;50.000;9.064;2023-02-28T03:41:48;2.10;;;1.90;;
73733;SDS011;62039;50.000;9.064;2023-02-28T03:44:20;1.90;;;1.70;;
73733;SDS011;62039;50.000;9.064;2023-02-28T03:46:50;3.10;;;1.77;;
73733;SDS011;62039;50.000;9.064;2023-02-28T03:49:21;1.57;;;1.47;;
73733;SDS011;62039;50.000;9.064;2023-02-28T03:51:50;2.10;;;1.90;;
73733;SDS011;62039;50.000;9.064;2023-02-28T03:54:20;2.30;;;1.80;;
73733;SDS011;62039;50.000;9.064;2023-02-28T03:56:51;2.07;;;1.73;;
73733;SDS011;62039;50.000;9.064;2023-02-28T03:59:24;2.13;;;1.43;;
73733;SDS011;62039;50.000;9.064;2023-02-28T04:01:54;2.20;;;2.00;;
73733;SDS011;62039;50.000;9.064;2023-02-28T04:04:23;2.80;;;1.60;;
73733;SDS011;62039;50.000;9.064;2023-02-28T04:06:50;2.47;;;1.83;;
73733;SDS011;62039;50.000;9.064;2023-02-28T04:09:17;2.23;;;1.70;;
73733;SDS011;62039;50.000;9.064;2023-02-28T04:11:45;2.03;;;1.70;;
73733;SDS011;62039;50.000;9.064;2023-02-28T04:14:15;2.00;;;1.80;;
73733;SDS011;62039;50.000;9.064;2023-02-28T04:16:42;1.93;;;1.73;;
73733;SDS011;62039;50.000;9.064;2023-02-28T04:19:09;2.20;;;2.00;;
73733;SDS011;62039;50.000;9.064;2023-02-28T04:21:39;2.43;;;1.93;;
73733;SDS011;62039;50.000;9.064;2023-02-28T04:24:07;2.07;;;1.80;;
73733;SDS011;62039;50.000;9.064;2023-02-28T04:26:35;2.50;;;2.07;;
73733;SDS011;62039;50.000;9.064;2023-02-28T04:29:04;3.00;;;2.03;;
73733;SDS011;62039;50.000;9.064;2023-02-28T04:31:32;2.03;;;1.87;;
73733;SDS011;62039;50.000;9.064;2023-02-28T04:33:59;2.27;;;1.60;;
73733;SDS011;62039;50.000;9.064;2023-02-28T04:36:25;2.27;;;1.80;;
73733;SDS011;62039;50.000;9.064;2023-02-28T04:38:52;1.80;;;1.63;;
73733;SDS011;62039;50.000;9.064;2023-02-28T04:41:19;2.10;;;1.90;;
73733;SDS011;62039;50.000;9.064;2023-02-28T04:43:46;2.23;;;1.67;;
73733;SDS011;62039;50.000;9.064;2023-02-28T04:46:14;2.20;;;1.77;;
73733;SDS011;62039;50.000;9.064;2023-02-28T04:48:41;2.67;;;1.80;;
73733;SDS011;62039;50.000;9.064;2023-02-28T04:51:08;2.53;;;1.70;;
73733;SDS011;62039;50.000;9.064;2023-02-28T04:53:36;2.07;;;1.87;;
73733;SDS011;62039;50.000;9.064;2023-02-28T04:56:03;2.43;;;1.90;;
73733;SDS011;62039;50.000;9.064;2023-02-28T04:58:31;2.00;;;1.80;;
73733;SDS011;62039;50.000;9.064;2023-02-28T05:01:01;1.90;;;1.70;;
73733;SDS011;62039;50.000;9.064;2023-02-28T05:03:29;2.20;;;2.00;;
73733;SDS011;62039;50.000;9.064;2023-02-28T05:05:56;2.93;;;2.10;;
73733;SDS011;62039;50.000;9.064;2023-02-28T05:08:22;2.60;;;2.10;;
73733;SDS011;62039;50.000;9.064;2023-02-28T05:10:49;2.67;;;2.00;;
73733;SDS011;62039;50.000;9.064;2023-02-28T05:13:15;2.03;;;1.77;;
73733;SDS011;62039;50.000;9.064;2023-02-28T05:15:42;1.80;;;1.57;;
73733;SDS011;62039;50.000;9.064;2023-02-28T05:18:08;1.90;;;1.80;;
73733;SDS011;62039;50.000;9.064;2023-02-28T05:20:36;2.23;;;2.03;;
73733;SDS011;62039;50.000;9.064;2023-02-28T05:23:03;3.13;;;1.83;;
73733;SDS011;62039;50.000;9.064;2023-02-28T05:25:29;2.83;;;1.80;;
73733;SDS011;62039;50.000;9.064;2023-02-28T05:27:56;2.33;;;1.60;;
73733;SDS011;62039;50.000;9.064;2023-02-28T05:30:22;2.00;;;1.90;;
73733;SDS011;62039;50.000;9.064;2023-02-28T05:32:49;2.37;;;1.80;;
73733;SDS011;62039;50.000;9.064;2023-02-28T05:35:17;2.37;;;1.70;;
73733;SDS011;62039;50.000;9.064;2023-02-28T05:37:45;2.50;;;1.80;;
73733;SDS011;62039;50.000;9.064;2023-02-28T05:40:11;3.03;;;1.73;;
73733;SDS011;62039;50.000;9.064;2023-02-28T05:42:38;3.37;;;1.93;;
73733;SDS011;62039;50.000;9.064;2023-02-28T05:45:05;3.07;;;1.83;;
73733;SDS011;62039;50.000;9.064;2023-02-28T05:47:32;1.90;;;1.77;;
73733;SDS011;62039;50.000;9.064;2023-02-28T05:49:59;2.50;;;2.20;;
73733;SDS011;62039;50.000;9.064;2023-02-28T05:52:26;3.30;;;2.20;;
73733;SDS011;62039;50.000;9.064;2023-02-28T05:54:54;2.30;;;2.10;;
73733;SDS011;62039;50.000;9.064;2023-02-28T05:57:21;2.50;;;2.10;;
73733;SDS011;62039;50.000;9.064;2023-02-28T05:59:50;2.60;;;2.10;;
73733;SDS011;62039;50.000;9.064;2023-02-28T06:02:17;3.03;;;2.30;;
73733;SDS011;62039;50.000;9.064;2023-02-28T06:04:44;3.30;;;2.40;;
73733;SDS011;62039;50.000;9.064;2023-02-28T06:07:10;2.60;;;2.37;;
73733;SDS011;62039;50.000;9.064;2023-02-28T06:09:37;2.80;;;2.50;;
73733;SDS011;62039;50.000;9.064;2023-02-28T06:12:05;2.90;;;2.30;;
73733;SDS011;62039;50.000;9.064;2023-02-28T06:14:33;1.77;;;1.60;;
73733;SDS011;62039;50.000;9.064;2023-02-28T06:17:00;2.10;;;1.60;;
73733;SDS011;62039;50.000;9.064;2023-02-28T06:19:27;2.00;;;1.80;;
73733;SDS011;62039;50.000;9.064;2023-02-28T06:21:53;1.70;;;1.60;;
73733;SDS011;62039;50.000;9.064;2023-02-28T06:24:21;3.03;;;2.10;;
73733;SDS011;62039;50.000;9.064;2023-02-28T06:26:48;2.50;;;1.90;;
73733;SDS011;62039;50.000;9.064;2023-02-28T06:29:16;2.53;;;2.03;;
73733;SDS011;62039;50.000;9.064;2023-02-28T06:31:43;2.73;;;2.40;;
73733;SDS011;62039;50.000;9.064;2023-02-28T06:34:10;2.53;;;1.90;;
73733;SDS011;62039;50.000;9.064;2023-02-28T06:36:36;2.90;;;2.00;;
73733;SDS011;62039;50.000;9.064;2023-02-28T06:39:03;1.60;;;1.50;;
73733;SDS011;62039;50.000;9.064;2023-02-28T06:41:30;2.10;;;1.87;;
73733;SDS011;62039;50.000;9.064;2023-02-28T06:44:18;1.97;;;1.60;;
73733;SDS011;62039;50.000;9.064;2023-02-28T06:46:45;2.77;;;1.60;;
73733;SDS011;62039;50.000;9.064;2023-02-28T06:49:12;2.23;;;1.80;;
73733;SDS011;62039;50.000;9.064;2023-02-28T06:51:39;1.90;;;1.70;;
73733;SDS011;62039;50.000;9.064;2023-02-28T06:54:06;2.63;;;2.07;;
73733;SDS011;62039;50.000;9.064;2023-02-28T06:56:33;2.40;;;2.20;;
73733;SDS011;62039;50.000;9.064;2023-02-28T06:59:00;2.10;;;1.90;;
73733;SDS011;62039;50.000;9.064;2023-02-28T07:01:28;1.80;;;1.70;;
73733;SDS011;62039;50.000;9.064;2023-02-28T07:03:55;2.23;;;1.93;;
73733;SDS011;62039;50.000;9.064;2023-02-28T07:06:22;2.50;;;2.10;;
73733;SDS011;62039;50.000;9.064;2023-02-28T07:08:49;2.97;;;2.70;;
73733;SDS011;62039;50.000;9.064;2023-02-28T07:11:16;3.97;;;3.07;;
73733;SDS011;62039;50.000;9.064;2023-02-28T07:13:43;4.67;;;2.80;;
73733;SDS011;62039;50.000;9.064;2023-02-28T07:16:10;3.53;;;2.30;;
73733;SDS011;62039;50.000;9.064;2023-02-28T07:18:38;5.40;;;2.10;;
73733;SDS011;62039;50.000;9.064;2023-02-28T07:21:06;4.97;;;2.23;;
73733;SDS011;62039;50.000;9.064;2023-02-28T07:23:34;2.43;;;2.00;;
73733;SDS011;62039;50.000;9.064;2023-02-28T07:26:01;3.10;;;2.27;;
73733;SDS011;62039;50.000;9.064;2023-02-28T07:28:28;2.60;;;1.70;;
73733;SDS011;62039;50.000;9.064;2023-02-28T07:30:54;3.50;;;1.97;;
73733;SDS011;62039;50.000;9.064;2023-02-28T07:33:21;2.80;;;1.77;;
73733;SDS011;62039;50.000;9.064;2023-02-28T07:35:49;3.50;;;2.20;;
73733;SDS011;62039;50.000;9.064;2023-02-28T07:38:15;2.57;;;2.13;;
73733;SDS011;62039;50.000;9.064;2023-02-28T07:40:42;3.67;;;2.20;;
73733;SDS011;62039;50.000;9.064;2023-02-28T07:43:08;2.73;;;2.30;;
73733;SDS011;62039;50.000;9.064;2023-02-28T07:45:35;2.33;;;1.70;;
73733;SDS011;62039;50.000;9.064;2023-02-28T07:48:01;2.10;;;1.60;;
73733;SDS011;62039;50.000;9.064;2023-02-28T07:50:28;2.20;;;1.60;;
73733;SDS011;62039;50.000;9.064;2023-02-28T07:52:56;3.60;;;2.13;;
73733;SDS011;62039;50.000;9.064;2023-02-28T07:55:23;2.00;;;1.70;;
73733;SDS011;62039;50.000;9.064;2023-02-28T07:57:50;3.20;;;1.80;;
73733;SDS011;62039;50.000;9.064;2023-02-28T08:00:17;1.67;;;1.57;;
73733;SDS011;62039;50.000;9.064;2023-02-28T08:02:43;1.67;;;1.57;;
73733;SDS011;62039;50.000;9.064;2023-02-28T08:05:10;1.73;;;1.53;;
73733;SDS011;62039;50.000;9.064;2023-02-28T08:07:37;2.07;;;1.47;;
73733;SDS011;62039;50.000;9.064;2023-02-28T08:10:05;2.23;;;1.70;;
73733;SDS011;62039;50.000;9.064;2023-02-28T08:12:33;2.63;;;1.90;;
73733;SDS011;62039;50.000;9.064;2023-02-28T08:14:59;2.40;;;1.80;;
73733;SDS011;62039;50.000;9.064;2023-02-28T08:17:26;2.40;;;2.10;;
73733;SDS011;62039;50.000;9.064;2023-02-28T08:19:52;2.03;;;1.80;;
73733;SDS011;62039;50.000;9.064;2023-02-28T08:22:19;1.60;;;1.50;;
73733;SDS011;62039;50.000;9.064;2023-02-28T08:24:45;2.40;;;1.53;;
73733;SDS011;62039;50.000;9.064;2023-02-28T08:27:13;1.70;;;1.50;;
73733;SDS011;62039;50.000;9.064;2023-02-28T08:29:40;1.73;;;1.60;;
73733;SDS011;62039;50.000;9.064;2023-02-28T08:32:06;3.03;;;2.60;;
73733;SDS011;62039;50.000;9.064;2023-02-28T08:34:48;3.40;;;2.80;;
73733;SDS011;62039;50.000;9.064;2023-02-28T08:37:15;2.27;;;1.90;;
73733;SDS011;62039;50.000;9.064;2023-02-28T08:39:42;3.27;;;2.73;;
73733;SDS011;62039;50.000;9.064;2023-02-28T08:42:08;2.37;;;2.13;;
73733;SDS011;62039;50.000;9.064;2023-02-28T08:44:36;4.03;;;3.20;;
73733;SDS011;62039;50.000;9.064;2023-02-28T08:47:03;2.97;;;2.67;;
73733;SDS011;62039;50.000;9.064;2023-02-28T08:49:29;3.50;;;3.10;;
73733;SDS011;62039;50.000;9.064;2023-02-28T08:51:56;3.93;;;3.00;;
73733;SDS011;62039;50.000;9.064;2023-02-28T08:54:22;3.53;;;2.90;;
73733;SDS011;62039;50.000;9.064;2023-02-28T08:56:49;3.37;;;2.90;;
73733;SDS011;62039;50.000;9.064;2023-02-28T08:59:16;3.43;;;2.97;;
73733;SDS011;62039;50.000;9.064;2023-02-28T09:01:44;4.73;;;3.53;;
73733;SDS011;62039;50.000;9.064;2023-02-28T09:04:10;3.30;;;3.00;;
73733;SDS011;62039;50.000;9.064;2023-02-28T09:06:40;3.27;;;2.50;;
73733;SDS011;62039;50.000;9.064;2023-02-28T09:09:07;4.00;;;3.33;;
73733;SDS011;62039;50.000;9.064;2023-02-28T09:11:33;3.27;;;2.70;;
73733;SDS011;62039;50.000;9.064;2023-02-28T09:14:00;3.30;;;3.00;;
73733;SDS011;62039;50.000;9.064;2023-02-28T09:16:27;3.27;;;2.90;;
73733;SDS011;62039;50.000;9.064;2023-02-28T09:18:56;3.73;;;3.00;;
73733;SDS011;62039;50.000;9.064;2023-02-28T09:21:22;4.20;;;3.37;;
73733;SDS011;62039;50.000;9.064;2023-02-28T09:23:50;4.20;;;3.30;;
73733;SDS011;62039;50.000;9.064;2023-02-28T09:26:17;3.50;;;3.13;;
73733;SDS011;62039;50.000;9.064;2023-02-28T09:28:47;4.23;;;3.20;;
73733;SDS011;62039;50.000;9.064;2023-02-28T09:31:15;4.13;;;2.87;;
73733;SDS011;62039;50.000;9.064;2023-02-28T09:33:43;3.60;;;3.07;;
73733;SDS011;62039;50.000;9.064;2023-02-28T09:36:11;3.50;;;3.20;;
73733;SDS011;62039;50.000;9.064;2023-02-28T09:38:38;3.10;;;2.80;;
73733;SDS011;62039;50.000;9.064;2023-02-28T09:41:09;2.87;;;2.60;;
73733;SDS011;62039;50.000;9.064;2023-02-28T09:43:40;4.23;;;3.03;;
73733;SDS011;62039;50.000;9.064;2023-02-28T09:46:12;3.27;;;2.90;;
73733;SDS011;62039;50.000;9.064;2023-02-28T09:48:47;2.97;;;2.67;;
73733;SDS011;62039;50.000;9.064;2023-02-28T09:51:27;3.23;;;2.93;;
73733;SDS011;62039;50.000;9.064;2023-02-28T09:53:59;3.20;;;2.90;;
73733;SDS011;62039;50.000;9.064;2023-02-28T09:56:28;3.97;;;3.20;;
73733;SDS011;62039;50.000;9.064;2023-02-28T09:58:58;3.93;;;3.07;;
73733;SDS011;62039;50.000;9.064;2023-02-28T10:01:30;4.17;;;2.70;;
73733;SDS011;62039;50.000;9.064;2023-02-28T10:04:03;3.73;;;2.87;;
73733;SDS011;62039;50.000;9.064;2023-02-28T10:06:38;4.07;;;3.77;;
73733;SDS011;62039;50.000;9.064;2023-02-28T10:09:08;4.40;;;3.30;;
73733;SDS011;62039;50.000;9.064;2023-02-28T10:11:39;3.60;;;3.30;;
73733;SDS011;62039;50.000;9.064;2023-02-28T10:14:06;3.83;;;3.07;;
73733;SDS011;62039;50.000;9.064;2023-02-28T10:16:39;3.20;;;2.90;;
73733;SDS011;62039;50.000;9.064;2023-02-28T10:19:09;3.23;;;2.90;;
73733;SDS011;62039;50.000;9.064;2023-02-28T10:21:42;3.17;;;2.70;;
73733;SDS011;62039;50.000;9.064;2023-02-28T10:24:16;2.53;;;2.33;;
73733;SDS011;62039;50.000;9.064;2023-02-28T10:26:49;2.70;;;2.30;;
73733;SDS011;62039;50.000;9.064;2023-02-28T10:29:19;3.07;;;2.37;;
73733;SDS011;62039;50.000;9.064;2023-02-28T10:31:46;3.63;;;2.93;;
73733;SDS011;62039;50.000;9.064;2023-02-28T10:34:13;3.10;;;2.80;;
73733;SDS011;62039;50.000;9.064;2023-02-28T10:36:39;3.77;;;3.03;;
73733;SDS011;62039;50.000;9.064;2023-02-28T10:42:18;3.47;;;3.10;;
73733;SDS011;62039;50.000;9.064;2023-02-28T10:44:47;3.63;;;3.10;;
73733;SDS011;62039;50.000;9.064;2023-02-28T10:47:14;4.97;;;3.30;;
73733;SDS011;62039;50.000;9.064;2023-02-28T10:49:46;5.40;;;3.03;;
73733;SDS011;62039;50.000;9.064;2023-02-28T10:52:13;3.50;;;3.20;;
73733;SDS011;62039;50.000;9.064;2023-02-28T10:54:58;2.93;;;2.60;;
73733;SDS011;62039;50.000;9.064;2023-02-28T10:57:42;3.67;;;2.70;;
73733;SDS011;62039;50.000;9.064;2023-02-28T11:00:12;4.87;;;2.70;;
73733;SDS011;62039;50.000;9.064;2023-02-28T11:02:41;3.03;;;2.73;;
73733;SDS011;62039;50.000;9.064;2023-02-28T11:07:59;3.33;;;2.90;;
73733;SDS011;62039;50.000;9.064;2023-02-28T11:10:32;3.30;;;2.87;;
73733;SDS011;62039;50.000;9.064;2023-02-28T11:13:00;3.70;;;3.07;;
73733;SDS011;62039;50.000;9.064;2023-02-28T11:15:28;3.50;;;3.20;;
73733;SDS011;62039;50.000;9.064;2023-02-28T11:17:57;2.73;;;2.53;;
73733;SDS011;62039;50.000;9.064;2023-02-28T11:20:26;3.27;;;2.97;;
73733;SDS011;62039;50.000;9.064;2023-02-28T11:22:56;3.30;;;3.00;;
73733;SDS011;62039;50.000;9.064;2023-02-28T11:25:24;3.27;;;2.87;;
73733;SDS011;62039;50.000;9.064;2023-02-28T11:27:52;6.60;;;3.50;;
73733;SDS011;62039;50.000;9.064;2023-02-28T11:33:18;4.23;;;3.80;;
73733;SDS011;62039;50.000;9.064;2023-02-28T11:35:48;4.33;;;3.80;;
73733;SDS011;62039;50.000;9.064;2023-02-28T11:38:16;3.57;;;3.27;;
73733;SDS011;62039;50.000;9.064;2023-02-28T11:40:43;4.23;;;3.83;;
73733;SDS011;62039;50.000;9.064;2023-02-28T11:43:19;4.17;;;3.77;;
73733;SDS011;62039;50.000;9.064;2023-02-28T11:46:08;4.83;;;4.20;;
73733;SDS011;62039;50.000;9.064;2023-02-28T11:48:44;4.83;;;3.60;;
73733;SDS011;62039;50.000;9.064;2023-02-28T11:51:21;3.30;;;3.00;;
73733;SDS011;62039;50.000;9.064;2023-02-28T11:54:06;3.57;;;3.27;;
73733;SDS011;62039;50.000;9.064;2023-02-28T11:56:48;3.10;;;2.87;;
73733;SDS011;62039;50.000;9.064;2023-02-28T11:59:30;4.03;;;3.60;;
73733;SDS011;62039;50.000;9.064;2023-02-28T12:02:13;3.30;;;3.00;;
73733;SDS011;62039;50.000;9.064;2023-02-28T12:07:49;3.40;;;3.10;;
73733;SDS011;62039;50.000;9.064;2023-02-28T12:10:24;2.97;;;2.77;;
73733;SDS011;62039;50.000;9.064;2023-02-28T12:12:57;4.13;;;3.73;;
73733;SDS011;62039;50.000;9.064;2023-02-28T12:18:51;3.87;;;3.47;;
73733;SDS011;62039;50.000;9.064;2023-02-28T12:21:28;4.47;;;3.47;;
73733;SDS011;62039;50.000;9.064;2023-02-28T12:24:07;4.07;;;3.43;;
73733;SDS011;62039;50.000;9.064;2023-02-28T12:26:43;3.77;;;3.40;;
73733;SDS011;62039;50.000;9.064;2023-02-28T12:29:13;5.03;;;4.30;;
73733;SDS011;62039;50.000;9.064;2023-02-28T12:31:45;3.77;;;3.30;;
73733;SDS011;62039;50.000;9.064;2023-02-28T12:34:18;3.90;;;3.60;;
73733;SDS011;62039;50.000;9.064;2023-02-28T12:36:48;5.17;;;3.73;;
73733;SDS011;62039;50.000;9.064;2023-02-28T12:39:18;4.60;;;4.20;;
73733;SDS011;62039;50.000;9.064;2023-02-28T12:41:51;4.17;;;3.63;;
73733;SDS011;62039;50.000;9.064;2023-02-28T12:44:20;4.10;;;3.70;;
73733;SDS011;62039;50.000;9.064;2023-02-28T12:46:54;4.50;;;3.60;;
73733;SDS011;62039;50.000;9.064;2023-02-28T12:49:25;3.90;;;3.40;;
73733;SDS011;62039;50.000;9.064;2023-02-28T12:51:55;3.90;;;3.27;;
73733;SDS011;62039;50.000;9.064;2023-02-28T12:54:23;3.43;;;2.97;;
73733;SDS011;62039;50.000;9.064;2023-02-28T12:56:54;3.90;;;3.47;;
73733;SDS011;62039;50.000;9.064;2023-02-28T12:59:27;5.33;;;4.83;;
73733;SDS011;62039;50.000;9.064;2023-02-28T13:02:02;3.60;;;3.30;;
73733;SDS011;62039;50.000;9.064;2023-02-28T13:10:22;3.47;;;3.17;;
73733;SDS011;62039;50.000;9.064;2023-02-28T13:12:50;3.40;;;3.10;;
73733;SDS011;62039;50.000;9.064;2023-02-28T13:15:18;3.90;;;3.60;;
73733;SDS011;62039;50.000;9.064;2023-02-28T13:17:48;4.87;;;3.97;;
73733;SDS011;62039;50.000;9.064;2023-02-28T13:20:18;4.30;;;3.90;;
73733;SDS011;62039;50.000;9.064;2023-02-28T13:22:47;4.13;;;3.43;;
73733;SDS011;62039;50.000;9.064;2023-02-28T13:31:27;4.53;;;3.73;;
73733;SDS011;62039;50.000;9.064;2023-02-28T13:34:13;4.50;;;3.93;;
73733;SDS011;62039;50.000;9.064;2023-02-28T13:36:43;4.20;;;3.60;;
73733;SDS011;62039;50.000;9.064;2023-02-28T13:42:32;4.47;;;3.50;;
73733;SDS011;62039;50.000;9.064;2023-02-28T13:47:51;4.30;;;3.90;;
73733;SDS011;62039;50.000;9.064;2023-02-28T13:53:14;4.10;;;3.70;;
73733;SDS011;62039;50.000;9.064;2023-02-28T13:55:57;5.00;;;4.40;;
73733;SDS011;62039;50.000;9.064;2023-02-28T13:58:36;4.40;;;3.70;;
73733;SDS011;62039;50.000;9.064;2023-02-28T14:01:15;3.63;;;3.33;;
73733;SDS011;62039;50.000;9.064;2023-02-28T14:03:57;3.63;;;3.30;;
73733;SDS011;62039;50.000;9.064;2023-02-28T14:06:33;4.17;;;3.87;;
73733;SDS011;62039;50.000;9.064;2023-02-28T14:09:03;4.07;;;3.43;;
73733;SDS011;62039;50.000;9.064;2023-02-28T14:11:42;4.17;;;3.37;;
73733;SDS011;62039;50.000;9.064;2023-02-28T14:14:52;3.80;;;3.40;;
73733;SDS011;62039;50.000;9.064;2023-02-28T14:17:16;4.00;;;3.20;;
73733;SDS011;62039;50.000;9.064;2023-02-28T14:19:44;3.97;;;3.57;;
73733;SDS011;62039;50.000;9.064;2023-02-28T14:22:16;4.10;;;3.23;;
73733;SDS011;62039;50.000;9.064;2023-02-28T14:25:03;3.83;;;3.30;;
73733;SDS011;62039;50.000;9.064;2023-02-28T14:27:40;3.40;;;3.10;;
73733;SDS011;62039;50.000;9.064;2023-02-28T14:33:14;3.43;;;3.13;;
73733;SDS011;62039;50.000;9.064;2023-02-28T14:35:55;3.87;;;3.40;;
73733;SDS011;62039;50.000;9.064;2023-02-28T14:38:36;4.33;;;3.70;;
73733;SDS011;62039;50.000;9.064;2023-02-28T14:41:12;3.63;;;3.27;;
73733;SDS011;62039;50.000;9.064;2023-02-28T14:43:48;3.47;;;2.97;;
73733;SDS011;62039;50.000;9.064;2023-02-28T14:46:21;2.97;;;2.67;;
73733;SDS011;62039;50.000;9.064;2023-02-28T14:48:51;3.57;;;3.27;;
73733;SDS011;62039;50.000;9.064;2023-02-28T14:51:18;4.57;;;3.40;;
73733;SDS011;62039;50.000;9.064;2023-02-28T14:53:46;3.60;;;2.80;;
73733;SDS011;62039;50.000;9.064;2023-02-28T14:56:22;3.40;;;3.10;;
73733;SDS011;62039;50.000;9.064;2023-02-28T14:58:52;3.83;;;3.43;;
73733;SDS011;62039;50.000;9.064;2023-02-28T15:01:21;3.57;;;3.10;;
73733;SDS011;62039;50.000;9.064;2023-02-28T15:03:58;3.73;;;3.10;;
73733;SDS011;62039;50.000;9.064;2023-02-28T15:06:29;4.33;;;3.60;;
73733;SDS011;62039;50.000;9.064;2023-02-28T15:09:09;3.73;;;3.30;;
73733;SDS011;62039;50.000;9.064;2023-02-28T15:11:39;3.07;;;2.70;;
73733;SDS011;62039;50.000;9.064;2023-02-28T15:14:06;5.53;;;3.50;;
73733;SDS011;62039;50.000;9.064;2023-02-28T15:16:34;3.37;;;2.80;;
73733;SDS011;62039;50.000;9.064;2023-02-28T15:19:04;3.67;;;3.30;;
73733;SDS011;62039;50.000;9.064;2023-02-28T15:21:34;3.60;;;3.30;;
73733;SDS011;62039;50.000;9.064;2023-02-28T15:24:04;3.30;;;3.00;;
73733;SDS011;62039;50.000;9.064;2023-02-28T15:26:37;4.80;;;4.30;;
73733;SDS011;62039;50.000;9.064;2023-02-28T15:29:08;4.07;;;2.93;;
73733;SDS011;62039;50.000;9.064;2023-02-28T15:31:40;4.20;;;3.10;;
73733;SDS011;62039;50.000;9.064;2023-02-28T15:34:29;4.00;;;3.50;;
73733;SDS011;62039;50.000;9.064;2023-02-28T15:40:04;2.90;;;2.70;;
73733;SDS011;62039;50.000;9.064;2023-02-28T15:42:37;3.40;;;3.10;;
73733;SDS011;62039;50.000;9.064;2023-02-28T15:45:04;3.93;;;3.40;;
73733;SDS011;62039;50.000;9.064;2023-02-28T15:47:31;3.60;;;2.90;;